KPBH

Details ICAO KPBH
Name Price Co
Region United States
Timezone America/Chicago (UTC-5.0)
Plans Departing 2
Arriving 2
Stats Elevation 1,497 ft / 456 m (AMSL)
Location 45.708585° -90.402526°
Runways 2
Magnetic Variation 2.307° W
Sunrise 2018-05-26 10:21:02 UTC / 2018-05-26 05:21:02 Local
Sunset 2018-05-27 01:39:12 UTC / 2018-05-26 20:39:12 Local
Advertisement - Login to hide

Runways

ID Width Length Bearing (true) Bearing (mag) Surface Threshold Offset Overrun Length
01 75 ft / 23 m 5,003 ft / 1,525 m 6.99° 9.30° Asphalt 0 ft / 0 m 0 ft / 0 m
06 75 ft / 23 m 3,944 ft / 1,202 m 58.89° 61.20° Asphalt 0 ft / 0 m 0 ft / 0 m
19 75 ft / 23 m 5,003 ft / 1,525 m 186.99° 189.30° Asphalt 0 ft / 0 m 0 ft / 0 m
24 75 ft / 23 m 3,944 ft / 1,202 m 238.90° 241.21° Asphalt 0 ft / 0 m 0 ft / 0 m

Map

Weather


0- 5 10 15 20 25 30 35+ Temperature / ° C

Clouds and Precipitation
Forecast for 2018-05-26 12:00 UTC. Updated 3 hours ago

Ground ~20,000 ft ~40,000 ft Winds

METAR

KPBH 261415Z AUTO 20003KT 10SM SCT100 23/17 A2975 RMK AO2 T02250170

TAF

Not found

Frequencies

Recorded 125.87 MHz AWOS 3
Approach 133.65 MHz MINNEAPOLIS APP/DEP
Unicom 122.80 MHz CTAF/UNICOM
Warning: Do not use this data for real-world aviation or navigation. No guarantee of current accuracy is given.